sensor_id;sensor_type;location;lat;lon;timestamp;P1;durP1;ratioP1;P2;durP2;ratioP2
3563;SDS011;1796;52.388;13.096;2024-01-10T00:00:36;39.70;;;17.90;;
3563;SDS011;1796;52.388;13.096;2024-01-10T00:03:03;37.80;;;16.73;;
3563;SDS011;1796;52.388;13.096;2024-01-10T00:05:30;34.90;;;15.87;;
3563;SDS011;1796;52.388;13.096;2024-01-10T00:07:58;41.10;;;17.30;;
3563;SDS011;1796;52.388;13.096;2024-01-10T00:10:25;52.20;;;19.43;;
3563;SDS011;1796;52.388;13.096;2024-01-10T00:12:52;36.70;;;16.10;;
3563;SDS011;1796;52.388;13.096;2024-01-10T00:15:19;28.97;;;14.87;;
3563;SDS011;1796;52.388;13.096;2024-01-10T00:17:46;37.50;;;17.37;;
3563;SDS011;1796;52.388;13.096;2024-01-10T00:20:12;37.17;;;16.40;;
3563;SDS011;1796;52.388;13.096;2024-01-10T00:22:39;45.10;;;18.87;;
3563;SDS011;1796;52.388;13.096;2024-01-10T00:25:08;41.57;;;17.10;;
3563;SDS011;1796;52.388;13.096;2024-01-10T00:27:35;34.50;;;16.50;;
3563;SDS011;1796;52.388;13.096;2024-01-10T00:30:02;34.40;;;15.00;;
3563;SDS011;1796;52.388;13.096;2024-01-10T00:32:29;41.73;;;17.30;;
3563;SDS011;1796;52.388;13.096;2024-01-10T00:34:56;45.40;;;17.63;;
3563;SDS011;1796;52.388;13.096;2024-01-10T00:37:23;39.77;;;17.83;;
3563;SDS011;1796;52.388;13.096;2024-01-10T00:39:50;44.73;;;18.00;;
3563;SDS011;1796;52.388;13.096;2024-01-10T00:42:18;35.00;;;15.83;;
3563;SDS011;1796;52.388;13.096;2024-01-10T00:44:45;44.57;;;17.80;;
3563;SDS011;1796;52.388;13.096;2024-01-10T00:47:12;43.33;;;17.03;;
3563;SDS011;1796;52.388;13.096;2024-01-10T00:49:38;40.27;;;16.47;;
3563;SDS011;1796;52.388;13.096;2024-01-10T00:52:05;37.30;;;16.03;;
3563;SDS011;1796;52.388;13.096;2024-01-10T00:54:32;51.43;;;19.50;;
3563;SDS011;1796;52.388;13.096;2024-01-10T00:56:59;37.43;;;16.80;;
3563;SDS011;1796;52.388;13.096;2024-01-10T00:59:27;38.20;;;16.57;;
3563;SDS011;1796;52.388;13.096;2024-01-10T01:01:54;48.17;;;17.10;;
3563;SDS011;1796;52.388;13.096;2024-01-10T01:04:21;37.93;;;18.73;;
3563;SDS011;1796;52.388;13.096;2024-01-10T01:06:48;34.67;;;16.00;;
3563;SDS011;1796;52.388;13.096;2024-01-10T01:09:15;32.80;;;15.57;;
3563;SDS011;1796;52.388;13.096;2024-01-10T01:11:42;43.03;;;17.43;;
3563;SDS011;1796;52.388;13.096;2024-01-10T01:14:08;41.13;;;16.73;;
3563;SDS011;1796;52.388;13.096;2024-01-10T01:16:37;36.07;;;16.77;;
3563;SDS011;1796;52.388;13.096;2024-01-10T01:19:03;33.33;;;17.00;;
3563;SDS011;1796;52.388;13.096;2024-01-10T01:21:30;46.23;;;18.70;;
3563;SDS011;1796;52.388;13.096;2024-01-10T01:23:57;42.10;;;17.10;;
3563;SDS011;1796;52.388;13.096;2024-01-10T01:26:24;42.73;;;18.37;;
3563;SDS011;1796;52.388;13.096;2024-01-10T01:28:51;45.07;;;18.70;;
3563;SDS011;1796;52.388;13.096;2024-01-10T01:31:18;41.07;;;18.87;;
3563;SDS011;1796;52.388;13.096;2024-01-10T01:33:46;39.50;;;17.50;;
3563;SDS011;1796;52.388;13.096;2024-01-10T01:36:13;48.43;;;20.00;;
3563;SDS011;1796;52.388;13.096;2024-01-10T01:38:40;46.97;;;18.80;;
3563;SDS011;1796;52.388;13.096;2024-01-10T01:41:07;39.07;;;17.13;;
3563;SDS011;1796;52.388;13.096;2024-01-10T01:43:33;42.77;;;17.43;;
3563;SDS011;1796;52.388;13.096;2024-01-10T01:46:01;45.23;;;17.30;;
3563;SDS011;1796;52.388;13.096;2024-01-10T01:48:29;42.30;;;17.97;;
3563;SDS011;1796;52.388;13.096;2024-01-10T01:50:59;43.93;;;16.60;;
3563;SDS011;1796;52.388;13.096;2024-01-10T01:53:28;43.03;;;16.60;;
3563;SDS011;1796;52.388;13.096;2024-01-10T01:55:56;38.60;;;16.13;;
3563;SDS011;1796;52.388;13.096;2024-01-10T01:58:24;36.07;;;15.97;;
3563;SDS011;1796;52.388;13.096;2024-01-10T02:00:51;39.50;;;16.13;;
3563;SDS011;1796;52.388;13.096;2024-01-10T02:03:18;38.53;;;16.83;;
3563;SDS011;1796;52.388;13.096;2024-01-10T02:05:46;52.70;;;18.57;;
3563;SDS011;1796;52.388;13.096;2024-01-10T02:08:15;43.97;;;17.27;;
3563;SDS011;1796;52.388;13.096;2024-01-10T02:10:42;57.13;;;18.70;;
3563;SDS011;1796;52.388;13.096;2024-01-10T02:13:09;39.20;;;16.80;;
3563;SDS011;1796;52.388;13.096;2024-01-10T02:15:36;47.33;;;17.27;;
3563;SDS011;1796;52.388;13.096;2024-01-10T02:18:04;46.57;;;18.07;;
3563;SDS011;1796;52.388;13.096;2024-01-10T02:20:31;37.37;;;15.57;;
3563;SDS011;1796;52.388;13.096;2024-01-10T02:22:59;35.07;;;17.37;;
3563;SDS011;1796;52.388;13.096;2024-01-10T02:25:27;38.70;;;17.40;;
3563;SDS011;1796;52.388;13.096;2024-01-10T02:27:54;54.90;;;18.77;;
3563;SDS011;1796;52.388;13.096;2024-01-10T02:30:20;50.53;;;17.00;;
3563;SDS011;1796;52.388;13.096;2024-01-10T02:32:47;38.53;;;17.53;;
3563;SDS011;1796;52.388;13.096;2024-01-10T02:35:14;46.70;;;18.60;;
3563;SDS011;1796;52.388;13.096;2024-01-10T02:37:41;43.70;;;18.60;;
3563;SDS011;1796;52.388;13.096;2024-01-10T02:40:08;39.43;;;17.13;;
3563;SDS011;1796;52.388;13.096;2024-01-10T02:42:37;42.43;;;19.13;;
3563;SDS011;1796;52.388;13.096;2024-01-10T02:45:04;47.37;;;17.90;;
3563;SDS011;1796;52.388;13.096;2024-01-10T02:47:31;44.17;;;18.47;;
3563;SDS011;1796;52.388;13.096;2024-01-10T02:49:58;40.03;;;17.27;;
3563;SDS011;1796;52.388;13.096;2024-01-10T02:52:25;45.57;;;18.47;;
3563;SDS011;1796;52.388;13.096;2024-01-10T02:54:52;50.63;;;19.43;;
3563;SDS011;1796;52.388;13.096;2024-01-10T02:57:19;42.43;;;17.07;;
3563;SDS011;1796;52.388;13.096;2024-01-10T02:59:47;47.33;;;19.40;;
3563;SDS011;1796;52.388;13.096;2024-01-10T03:02:14;47.53;;;19.30;;
3563;SDS011;1796;52.388;13.096;2024-01-10T03:04:41;46.20;;;17.60;;
3563;SDS011;1796;52.388;13.096;2024-01-10T03:07:08;40.83;;;17.83;;
3563;SDS011;1796;52.388;13.096;2024-01-10T03:09:35;57.43;;;20.87;;
3563;SDS011;1796;52.388;13.096;2024-01-10T03:12:03;53.53;;;19.70;;
3563;SDS011;1796;52.388;13.096;2024-01-10T03:14:30;43.90;;;17.83;;
3563;SDS011;1796;52.388;13.096;2024-01-10T03:16:58;52.30;;;19.77;;
3563;SDS011;1796;52.388;13.096;2024-01-10T03:19:25;49.13;;;17.17;;
3563;SDS011;1796;52.388;13.096;2024-01-10T03:21:52;45.23;;;18.80;;
3563;SDS011;1796;52.388;13.096;2024-01-10T03:24:18;41.70;;;18.20;;
3563;SDS011;1796;52.388;13.096;2024-01-10T03:26:44;49.70;;;19.43;;
3563;SDS011;1796;52.388;13.096;2024-01-10T03:29:11;43.50;;;18.53;;
3563;SDS011;1796;52.388;13.096;2024-01-10T03:31:38;40.40;;;17.30;;
3563;SDS011;1796;52.388;13.096;2024-01-10T03:34:06;42.90;;;18.27;;
3563;SDS011;1796;52.388;13.096;2024-01-10T03:36:33;46.90;;;18.43;;
3563;SDS011;1796;52.388;13.096;2024-01-10T03:39:00;43.47;;;18.20;;
3563;SDS011;1796;52.388;13.096;2024-01-10T03:41:27;49.60;;;19.70;;
3563;SDS011;1796;52.388;13.096;2024-01-10T03:43:54;50.23;;;20.00;;
3563;SDS011;1796;52.388;13.096;2024-01-10T03:46:21;43.20;;;16.87;;
3563;SDS011;1796;52.388;13.096;2024-01-10T03:48:47;34.10;;;16.00;;
3563;SDS011;1796;52.388;13.096;2024-01-10T03:51:17;42.17;;;18.33;;
3563;SDS011;1796;52.388;13.096;2024-01-10T03:53:44;44.50;;;17.27;;
3563;SDS011;1796;52.388;13.096;2024-01-10T03:56:12;39.77;;;17.60;;
3563;SDS011;1796;52.388;13.096;2024-01-10T03:58:39;40.30;;;18.33;;
3563;SDS011;1796;52.388;13.096;2024-01-10T04:01:05;38.03;;;17.80;;
3563;SDS011;1796;52.388;13.096;2024-01-10T04:03:33;37.57;;;17.50;;
3563;SDS011;1796;52.388;13.096;2024-01-10T04:06:01;48.53;;;19.27;;
3563;SDS011;1796;52.388;13.096;2024-01-10T04:08:29;45.67;;;19.10;;
3563;SDS011;1796;52.388;13.096;2024-01-10T04:10:56;42.00;;;18.87;;
3563;SDS011;1796;52.388;13.096;2024-01-10T04:13:24;44.27;;;17.70;;
3563;SDS011;1796;52.388;13.096;2024-01-10T04:15:51;41.47;;;17.30;;
3563;SDS011;1796;52.388;13.096;2024-01-10T04:18:19;47.30;;;18.50;;
3563;SDS011;1796;52.388;13.096;2024-01-10T04:20:46;40.97;;;17.10;;
3563;SDS011;1796;52.388;13.096;2024-01-10T04:23:13;50.83;;;19.00;;
3563;SDS011;1796;52.388;13.096;2024-01-10T04:25:41;51.77;;;18.40;;
3563;SDS011;1796;52.388;13.096;2024-01-10T04:28:08;43.43;;;19.40;;
3563;SDS011;1796;52.388;13.096;2024-01-10T04:30:35;39.57;;;18.03;;
3563;SDS011;1796;52.388;13.096;2024-01-10T04:33:02;54.03;;;19.60;;
3563;SDS011;1796;52.388;13.096;2024-01-10T04:35:29;49.20;;;19.83;;
3563;SDS011;1796;52.388;13.096;2024-01-10T04:37:56;37.93;;;16.67;;
3563;SDS011;1796;52.388;13.096;2024-01-10T04:40:23;45.33;;;17.03;;
3563;SDS011;1796;52.388;13.096;2024-01-10T04:42:51;42.40;;;18.50;;
3563;SDS011;1796;52.388;13.096;2024-01-10T04:45:18;47.73;;;19.67;;
3563;SDS011;1796;52.388;13.096;2024-01-10T04:47:45;40.70;;;18.67;;
3563;SDS011;1796;52.388;13.096;2024-01-10T04:50:11;48.40;;;18.43;;
3563;SDS011;1796;52.388;13.096;2024-01-10T04:52:38;46.40;;;18.90;;
3563;SDS011;1796;52.388;13.096;2024-01-10T04:55:05;42.20;;;18.40;;
3563;SDS011;1796;52.388;13.096;2024-01-10T04:57:33;51.77;;;17.00;;
3563;SDS011;1796;52.388;13.096;2024-01-10T05:00:01;41.70;;;18.10;;
3563;SDS011;1796;52.388;13.096;2024-01-10T05:02:29;43.13;;;17.10;;
3563;SDS011;1796;52.388;13.096;2024-01-10T05:04:56;52.37;;;17.97;;
3563;SDS011;1796;52.388;13.096;2024-01-10T05:07:24;44.83;;;17.07;;
3563;SDS011;1796;52.388;13.096;2024-01-10T05:09:51;56.13;;;19.17;;
3563;SDS011;1796;52.388;13.096;2024-01-10T05:12:17;58.17;;;21.43;;
3563;SDS011;1796;52.388;13.096;2024-01-10T05:14:44;46.20;;;18.97;;
3563;SDS011;1796;52.388;13.096;2024-01-10T05:17:12;45.10;;;17.40;;
3563;SDS011;1796;52.388;13.096;2024-01-10T05:19:39;41.37;;;19.43;;
3563;SDS011;1796;52.388;13.096;2024-01-10T05:22:06;47.50;;;17.57;;
3563;SDS011;1796;52.388;13.096;2024-01-10T05:24:33;46.77;;;18.30;;
3563;SDS011;1796;52.388;13.096;2024-01-10T05:27:00;50.10;;;18.33;;
3563;SDS011;1796;52.388;13.096;2024-01-10T05:29:28;54.67;;;18.87;;
3563;SDS011;1796;52.388;13.096;2024-01-10T05:31:54;43.97;;;18.60;;
3563;SDS011;1796;52.388;13.096;2024-01-10T05:34:23;46.03;;;18.67;;
3563;SDS011;1796;52.388;13.096;2024-01-10T05:36:50;40.97;;;18.80;;
3563;SDS011;1796;52.388;13.096;2024-01-10T05:39:16;44.97;;;18.60;;
3563;SDS011;1796;52.388;13.096;2024-01-10T05:41:45;89.67;;;20.47;;
3563;SDS011;1796;52.388;13.096;2024-01-10T05:44:12;56.70;;;22.10;;
3563;SDS011;1796;52.388;13.096;2024-01-10T05:46:40;45.80;;;17.70;;
3563;SDS011;1796;52.388;13.096;2024-01-10T05:49:07;50.17;;;18.27;;
3563;SDS011;1796;52.388;13.096;2024-01-10T05:51:37;39.43;;;17.57;;
3563;SDS011;1796;52.388;13.096;2024-01-10T05:54:03;40.60;;;18.60;;
3563;SDS011;1796;52.388;13.096;2024-01-10T05:56:32;42.63;;;18.87;;
3563;SDS011;1796;52.388;13.096;2024-01-10T05:58:59;38.10;;;17.20;;
3563;SDS011;1796;52.388;13.096;2024-01-10T06:01:26;45.60;;;18.23;;
3563;SDS011;1796;52.388;13.096;2024-01-10T06:03:53;44.23;;;18.00;;
3563;SDS011;1796;52.388;13.096;2024-01-10T06:06:21;42.20;;;17.80;;
3563;SDS011;1796;52.388;13.096;2024-01-10T06:08:49;50.07;;;18.80;;
3563;SDS011;1796;52.388;13.096;2024-01-10T06:11:17;52.87;;;20.70;;
3563;SDS011;1796;52.388;13.096;2024-01-10T06:13:44;45.17;;;18.87;;
3563;SDS011;1796;52.388;13.096;2024-01-10T06:16:11;51.80;;;20.27;;
3563;SDS011;1796;52.388;13.096;2024-01-10T06:18:38;42.90;;;19.37;;
3563;SDS011;1796;52.388;13.096;2024-01-10T06:21:05;44.97;;;18.47;;
3563;SDS011;1796;52.388;13.096;2024-01-10T06:23:32;48.07;;;18.20;;
3563;SDS011;1796;52.388;13.096;2024-01-10T06:26:01;50.00;;;19.73;;
3563;SDS011;1796;52.388;13.096;2024-01-10T06:28:28;36.47;;;17.67;;
3563;SDS011;1796;52.388;13.096;2024-01-10T06:30:55;43.67;;;16.50;;
3563;SDS011;1796;52.388;13.096;2024-01-10T06:33:22;44.83;;;17.30;;
3563;SDS011;1796;52.388;13.096;2024-01-10T06:35:49;47.13;;;19.50;;
3563;SDS011;1796;52.388;13.096;2024-01-10T06:38:16;37.87;;;16.57;;
3563;SDS011;1796;52.388;13.096;2024-01-10T06:40:45;51.43;;;19.30;;
3563;SDS011;1796;52.388;13.096;2024-01-10T06:43:14;40.10;;;18.37;;
3563;SDS011;1796;52.388;13.096;2024-01-10T06:45:41;45.93;;;18.70;;
3563;SDS011;1796;52.388;13.096;2024-01-10T06:48:08;44.20;;;17.97;;
3563;SDS011;1796;52.388;13.096;2024-01-10T06:50:35;36.73;;;16.73;;
3563;SDS011;1796;52.388;13.096;2024-01-10T06:53:03;46.83;;;20.17;;
3563;SDS011;1796;52.388;13.096;2024-01-10T06:55:30;45.80;;;18.30;;
3563;SDS011;1796;52.388;13.096;2024-01-10T06:57:57;42.53;;;17.60;;
3563;SDS011;1796;52.388;13.096;2024-01-10T07:00:25;49.13;;;20.07;;
3563;SDS011;1796;52.388;13.096;2024-01-10T07:02:52;56.80;;;19.77;;
3563;SDS011;1796;52.388;13.096;2024-01-10T07:05:19;51.47;;;22.13;;
3563;SDS011;1796;52.388;13.096;2024-01-10T07:07:46;57.60;;;20.20;;
3563;SDS011;1796;52.388;13.096;2024-01-10T07:10:14;43.27;;;19.57;;
3563;SDS011;1796;52.388;13.096;2024-01-10T07:12:41;38.13;;;17.07;;
3563;SDS011;1796;52.388;13.096;2024-01-10T07:15:08;43.53;;;19.07;;
3563;SDS011;1796;52.388;13.096;2024-01-10T07:17:37;51.77;;;18.57;;
3563;SDS011;1796;52.388;13.096;2024-01-10T07:20:05;51.43;;;19.03;;
3563;SDS011;1796;52.388;13.096;2024-01-10T07:22:33;41.80;;;18.13;;
3563;SDS011;1796;52.388;13.096;2024-01-10T07:25:00;39.07;;;18.80;;
3563;SDS011;1796;52.388;13.096;2024-01-10T07:27:27;43.50;;;19.07;;
3563;SDS011;1796;52.388;13.096;2024-01-10T07:29:54;47.73;;;19.60;;
3563;SDS011;1796;52.388;13.096;2024-01-10T07:32:22;48.70;;;19.43;;
3563;SDS011;1796;52.388;13.096;2024-01-10T07:34:50;55.60;;;20.83;;
3563;SDS011;1796;52.388;13.096;2024-01-10T07:37:17;44.53;;;17.60;;
3563;SDS011;1796;52.388;13.096;2024-01-10T07:39:45;48.77;;;20.03;;
3563;SDS011;1796;52.388;13.096;2024-01-10T07:42:12;61.13;;;22.47;;
3563;SDS011;1796;52.388;13.096;2024-01-10T07:44:39;53.37;;;20.03;;
3563;SDS011;1796;52.388;13.096;2024-01-10T07:47:06;53.33;;;20.00;;
3563;SDS011;1796;52.388;13.096;2024-01-10T07:49:33;62.60;;;21.90;;
3563;SDS011;1796;52.388;13.096;2024-01-10T07:52:01;49.63;;;21.37;;
3563;SDS011;1796;52.388;13.096;2024-01-10T07:54:29;51.93;;;20.80;;
3563;SDS011;1796;52.388;13.096;2024-01-10T07:56:57;55.10;;;21.10;;
3563;SDS011;1796;52.388;13.096;2024-01-10T07:59:24;46.67;;;21.90;;
3563;SDS011;1796;52.388;13.096;2024-01-10T08:01:54;47.30;;;19.73;;
3563;SDS011;1796;52.388;13.096;2024-01-10T08:04:23;56.33;;;20.60;;
3563;SDS011;1796;52.388;13.096;2024-01-10T08:06:51;51.87;;;21.30;;
3563;SDS011;1796;52.388;13.096;2024-01-10T08:09:19;48.17;;;22.23;;
3563;SDS011;1796;52.388;13.096;2024-01-10T08:11:46;44.50;;;19.23;;
3563;SDS011;1796;52.388;13.096;2024-01-10T08:14:13;60.13;;;21.93;;
3563;SDS011;1796;52.388;13.096;2024-01-10T08:16:41;56.27;;;22.73;;
3563;SDS011;1796;52.388;13.096;2024-01-10T08:19:09;57.93;;;23.43;;
3563;SDS011;1796;52.388;13.096;2024-01-10T08:21:37;58.03;;;21.67;;
3563;SDS011;1796;52.388;13.096;2024-01-10T08:24:04;58.10;;;21.90;;
3563;SDS011;1796;52.388;13.096;2024-01-10T08:26:33;43.60;;;19.33;;
3563;SDS011;1796;52.388;13.096;2024-01-10T08:29:00;57.43;;;24.17;;
3563;SDS011;1796;52.388;13.096;2024-01-10T08:31:27;52.57;;;21.77;;
3563;SDS011;1796;52.388;13.096;2024-01-10T08:33:54;58.87;;;22.23;;
3563;SDS011;1796;52.388;13.096;2024-01-10T08:36:21;62.47;;;21.90;;
3563;SDS011;1796;52.388;13.096;2024-01-10T08:38:49;54.57;;;21.70;;
3563;SDS011;1796;52.388;13.096;2024-01-10T08:41:16;69.63;;;23.40;;
3563;SDS011;1796;52.388;13.096;2024-01-10T08:43:45;51.10;;;21.57;;
3563;SDS011;1796;52.388;13.096;2024-01-10T08:46:12;43.93;;;20.07;;
3563;SDS011;1796;52.388;13.096;2024-01-10T08:48:39;60.50;;;22.57;;
3563;SDS011;1796;52.388;13.096;2024-01-10T08:51:06;57.50;;;22.37;;
3563;SDS011;1796;52.388;13.096;2024-01-10T08:53:34;52.87;;;22.57;;
3563;SDS011;1796;52.388;13.096;2024-01-10T08:56:01;52.90;;;21.30;;
3563;SDS011;1796;52.388;13.096;2024-01-10T08:58:28;51.43;;;21.97;;
3563;SDS011;1796;52.388;13.096;2024-01-10T09:00:56;66.90;;;24.10;;
3563;SDS011;1796;52.388;13.096;2024-01-10T09:03:23;51.33;;;21.97;;
3563;SDS011;1796;52.388;13.096;2024-01-10T09:05:50;52.43;;;23.70;;
3563;SDS011;1796;52.388;13.096;2024-01-10T09:08:17;65.63;;;24.80;;
3563;SDS011;1796;52.388;13.096;2024-01-10T09:10:44;64.30;;;25.27;;
3563;SDS011;1796;52.388;13.096;2024-01-10T09:13:11;61.40;;;22.97;;
3563;SDS011;1796;52.388;13.096;2024-01-10T09:15:37;60.27;;;22.90;;
3563;SDS011;1796;52.388;13.096;2024-01-10T09:18:06;55.00;;;22.43;;
3563;SDS011;1796;52.388;13.096;2024-01-10T09:20:33;60.30;;;22.97;;
3563;SDS011;1796;52.388;13.096;2024-01-10T09:23:00;54.07;;;22.30;;
3563;SDS011;1796;52.388;13.096;2024-01-10T09:25:27;61.33;;;24.07;;
3563;SDS011;1796;52.388;13.096;2024-01-10T09:27:54;56.03;;;23.13;;
3563;SDS011;1796;52.388;13.096;2024-01-10T09:30:22;55.30;;;22.90;;
3563;SDS011;1796;52.388;13.096;2024-01-10T09:32:49;48.27;;;21.93;;
3563;SDS011;1796;52.388;13.096;2024-01-10T09:35:17;56.17;;;24.00;;
3563;SDS011;1796;52.388;13.096;2024-01-10T09:37:44;59.10;;;22.70;;
3563;SDS011;1796;52.388;13.096;2024-01-10T09:40:11;46.70;;;22.17;;
3563;SDS011;1796;52.388;13.096;2024-01-10T09:42:41;54.97;;;22.97;;
3563;SDS011;1796;52.388;13.096;2024-01-10T09:45:09;65.87;;;22.80;;
3563;SDS011;1796;52.388;13.096;2024-01-10T09:47:38;53.30;;;21.50;;
3563;SDS011;1796;52.388;13.096;2024-01-10T09:50:08;52.93;;;22.67;;
3563;SDS011;1796;52.388;13.096;2024-01-10T09:52:39;51.10;;;21.30;;
3563;SDS011;1796;52.388;13.096;2024-01-10T09:55:08;54.30;;;21.80;;
3563;SDS011;1796;52.388;13.096;2024-01-10T09:57:37;50.03;;;21.37;;
3563;SDS011;1796;52.388;13.096;2024-01-10T10:00:06;49.10;;;20.37;;
3563;SDS011;1796;52.388;13.096;2024-01-10T10:02:37;48.40;;;20.43;;
3563;SDS011;1796;52.388;13.096;2024-01-10T10:05:07;41.50;;;20.17;;
3563;SDS011;1796;52.388;13.096;2024-01-10T10:07:44;44.17;;;20.60;;
3563;SDS011;1796;52.388;13.096;2024-01-10T10:10:11;45.20;;;19.80;;
3563;SDS011;1796;52.388;13.096;2024-01-10T10:12:43;56.20;;;22.60;;
3563;SDS011;1796;52.388;13.096;2024-01-10T10:15:12;48.67;;;20.30;;
3563;SDS011;1796;52.388;13.096;2024-01-10T10:17:41;54.87;;;22.53;;
3563;SDS011;1796;52.388;13.096;2024-01-10T10:20:17;89.63;;;26.57;;
3563;SDS011;1796;52.388;13.096;2024-01-10T10:22:59;47.90;;;20.23;;
3563;SDS011;1796;52.388;13.096;2024-01-10T10:25:27;65.03;;;20.60;;
3563;SDS011;1796;52.388;13.096;2024-01-10T10:27:55;49.37;;;22.03;;
3563;SDS011;1796;52.388;13.096;2024-01-10T10:30:22;51.93;;;20.50;;
3563;SDS011;1796;52.388;13.096;2024-01-10T10:32:49;44.37;;;20.27;;
3563;SDS011;1796;52.388;13.096;2024-01-10T10:35:17;58.67;;;23.13;;
3563;SDS011;1796;52.388;13.096;2024-01-10T10:37:45;52.07;;;21.00;;
3563;SDS011;1796;52.388;13.096;2024-01-10T10:40:13;47.47;;;20.27;;
3563;SDS011;1796;52.388;13.096;2024-01-10T10:42:43;46.93;;;20.47;;
3563;SDS011;1796;52.388;13.096;2024-01-10T10:45:12;43.50;;;19.67;;
3563;SDS011;1796;52.388;13.096;2024-01-10T10:47:42;44.80;;;19.67;;
3563;SDS011;1796;52.388;13.096;2024-01-10T10:50:12;43.93;;;19.30;;
3563;SDS011;1796;52.388;13.096;2024-01-10T10:52:41;44.00;;;20.03;;
3563;SDS011;1796;52.388;13.096;2024-01-10T10:55:14;52.87;;;21.50;;
3563;SDS011;1796;52.388;13.096;2024-01-10T10:57:43;49.40;;;18.97;;
3563;SDS011;1796;52.388;13.096;2024-01-10T11:00:12;45.27;;;19.10;;
3563;SDS011;1796;52.388;13.096;2024-01-10T11:02:41;43.47;;;18.23;;
3563;SDS011;1796;52.388;13.096;2024-01-10T11:05:09;41.63;;;18.03;;
3563;SDS011;1796;52.388;13.096;2024-01-10T11:07:37;45.10;;;16.80;;
3563;SDS011;1796;52.388;13.096;2024-01-10T11:10:04;36.50;;;16.00;;
3563;SDS011;1796;52.388;13.096;2024-01-10T11:15:39;41.80;;;17.40;;
3563;SDS011;1796;52.388;13.096;2024-01-10T11:21:16;32.07;;;14.70;;
3563;SDS011;1796;52.388;13.096;2024-01-10T11:23:50;32.77;;;15.10;;
3563;SDS011;1796;52.388;13.096;2024-01-10T11:26:20;33.30;;;15.40;;
3563;SDS011;1796;52.388;13.096;2024-01-10T11:28:49;32.73;;;14.70;;
3563;SDS011;1796;52.388;13.096;2024-01-10T11:31:26;34.43;;;15.73;;
3563;SDS011;1796;52.388;13.096;2024-01-10T11:33:55;38.10;;;18.67;;
3563;SDS011;1796;52.388;13.096;2024-01-10T11:36:22;33.83;;;15.00;;
3563;SDS011;1796;52.388;13.096;2024-01-10T11:38:53;30.70;;;14.80;;
3563;SDS011;1796;52.388;13.096;2024-01-10T11:41:24;34.33;;;14.20;;
3563;SDS011;1796;52.388;13.096;2024-01-10T11:46:54;33.03;;;14.80;;
3563;SDS011;1796;52.388;13.096;2024-01-10T11:49:22;32.80;;;14.33;;
3563;SDS011;1796;52.388;13.096;2024-01-10T11:51:50;32.30;;;15.00;;
3563;SDS011;1796;52.388;13.096;2024-01-10T11:54:38;32.80;;;14.50;;
3563;SDS011;1796;52.388;13.096;2024-01-10T11:57:13;33.33;;;14.87;;
3563;SDS011;1796;52.388;13.096;2024-01-10T11:59:46;36.67;;;14.30;;
3563;SDS011;1796;52.388;13.096;2024-01-10T12:02:16;33.10;;;15.00;;
3563;SDS011;1796;52.388;13.096;2024-01-10T12:04:44;35.47;;;14.00;;
3563;SDS011;1796;52.388;13.096;2024-01-10T12:07:11;32.60;;;13.70;;
3563;SDS011;1796;52.388;13.096;2024-01-10T12:09:38;30.87;;;13.67;;
3563;SDS011;1796;52.388;13.096;2024-01-10T12:12:07;29.97;;;13.50;;
3563;SDS011;1796;52.388;13.096;2024-01-10T12:14:34;25.63;;;13.63;;
3563;SDS011;1796;52.388;13.096;2024-01-10T12:17:03;36.17;;;14.13;;
3563;SDS011;1796;52.388;13.096;2024-01-10T12:19:33;24.70;;;11.70;;
3563;SDS011;1796;52.388;13.096;2024-01-10T12:22:00;26.20;;;13.03;;
3563;SDS011;1796;52.388;13.096;2024-01-10T12:24:28;29.73;;;13.80;;
3563;SDS011;1796;52.388;13.096;2024-01-10T12:26:56;37.37;;;14.47;;
3563;SDS011;1796;52.388;13.096;2024-01-10T12:29:23;35.17;;;15.37;;
3563;SDS011;1796;52.388;13.096;2024-01-10T12:31:50;37.33;;;14.97;;
3563;SDS011;1796;52.388;13.096;2024-01-10T12:34:18;37.60;;;15.73;;
3563;SDS011;1796;52.388;13.096;2024-01-10T12:36:46;38.93;;;14.50;;
3563;SDS011;1796;52.388;13.096;2024-01-10T12:39:14;38.00;;;16.17;;
3563;SDS011;1796;52.388;13.096;2024-01-10T12:41:42;42.00;;;15.07;;
3563;SDS011;1796;52.388;13.096;2024-01-10T12:44:10;32.70;;;15.47;;
3563;SDS011;1796;52.388;13.096;2024-01-10T12:46:48;46.23;;;16.93;;
3563;SDS011;1796;52.388;13.096;2024-01-10T12:49:19;37.33;;;14.00;;
3563;SDS011;1796;52.388;13.096;2024-01-10T12:51:46;42.80;;;15.17;;
3563;SDS011;1796;52.388;13.096;2024-01-10T12:54:13;30.93;;;15.77;;
3563;SDS011;1796;52.388;13.096;2024-01-10T12:56:41;34.57;;;15.97;;
3563;SDS011;1796;52.388;13.096;2024-01-10T12:59:08;40.87;;;16.13;;
3563;SDS011;1796;52.388;13.096;2024-01-10T13:01:35;31.13;;;14.93;;
3563;SDS011;1796;52.388;13.096;2024-01-10T13:04:03;29.57;;;14.87;;
3563;SDS011;1796;52.388;13.096;2024-01-10T13:06:31;37.80;;;16.60;;
3563;SDS011;1796;52.388;13.096;2024-01-10T13:08:58;34.57;;;15.80;;
3563;SDS011;1796;52.388;13.096;2024-01-10T13:11:25;35.97;;;16.20;;
3563;SDS011;1796;52.388;13.096;2024-01-10T13:13:52;37.80;;;15.83;;
3563;SDS011;1796;52.388;13.096;2024-01-10T13:16:19;40.70;;;15.37;;
3563;SDS011;1796;52.388;13.096;2024-01-10T13:18:46;36.87;;;15.07;;
3563;SDS011;1796;52.388;13.096;2024-01-10T13:21:12;29.00;;;14.57;;
3563;SDS011;1796;52.388;13.096;2024-01-10T13:23:41;36.87;;;14.60;;
3563;SDS011;1796;52.388;13.096;2024-01-10T13:26:08;37.43;;;15.50;;
3563;SDS011;1796;52.388;13.096;2024-01-10T13:28:36;34.97;;;16.70;;
3563;SDS011;1796;52.388;13.096;2024-01-10T13:31:03;33.93;;;15.00;;
3563;SDS011;1796;52.388;13.096;2024-01-10T13:33:30;30.23;;;14.63;;
3563;SDS011;1796;52.388;13.096;2024-01-10T13:35:57;45.53;;;15.60;;
3563;SDS011;1796;52.388;13.096;2024-01-10T13:38:24;31.27;;;14.67;;
3563;SDS011;1796;52.388;13.096;2024-01-10T13:40:52;31.63;;;15.10;;
3563;SDS011;1796;52.388;13.096;2024-01-10T13:43:19;35.93;;;15.10;;
3563;SDS011;1796;52.388;13.096;2024-01-10T13:45:46;31.97;;;15.53;;
3563;SDS011;1796;52.388;13.096;2024-01-10T13:48:13;32.87;;;14.83;;
3563;SDS011;1796;52.388;13.096;2024-01-10T13:50:41;30.93;;;13.80;;
3563;SDS011;1796;52.388;13.096;2024-01-10T13:53:07;33.50;;;14.30;;
3563;SDS011;1796;52.388;13.096;2024-01-10T13:55:34;33.33;;;13.37;;
3563;SDS011;1796;52.388;13.096;2024-01-10T13:58:03;29.50;;;14.90;;
3563;SDS011;1796;52.388;13.096;2024-01-10T14:00:29;35.43;;;14.83;;
3563;SDS011;1796;52.388;13.096;2024-01-10T14:02:56;25.37;;;13.10;;
3563;SDS011;1796;52.388;13.096;2024-01-10T14:05:25;32.33;;;13.77;;
3563;SDS011;1796;52.388;13.096;2024-01-10T14:07:53;53.63;;;16.17;;
3563;SDS011;1796;52.388;13.096;2024-01-10T14:10:20;26.63;;;13.03;;
3563;SDS011;1796;52.388;13.096;2024-01-10T14:12:47;26.87;;;12.77;;
3563;SDS011;1796;52.388;13.096;2024-01-10T14:15:15;35.23;;;15.43;;
3563;SDS011;1796;52.388;13.096;2024-01-10T14:17:42;30.00;;;13.47;;
3563;SDS011;1796;52.388;13.096;2024-01-10T14:20:10;43.80;;;15.73;;
3563;SDS011;1796;52.388;13.096;2024-01-10T14:22:38;33.57;;;15.00;;
3563;SDS011;1796;52.388;13.096;2024-01-10T14:25:06;32.70;;;15.20;;
3563;SDS011;1796;52.388;13.096;2024-01-10T14:27:34;34.67;;;15.40;;
3563;SDS011;1796;52.388;13.096;2024-01-10T14:30:03;29.07;;;14.03;;
3563;SDS011;1796;52.388;13.096;2024-01-10T14:32:34;36.23;;;14.40;;
3563;SDS011;1796;52.388;13.096;2024-01-10T14:35:02;37.53;;;13.50;;
3563;SDS011;1796;52.388;13.096;2024-01-10T14:37:31;35.93;;;14.93;;
3563;SDS011;1796;52.388;13.096;2024-01-10T14:40:00;35.67;;;13.70;;
3563;SDS011;1796;52.388;13.096;2024-01-10T14:42:27;27.00;;;13.27;;
3563;SDS011;1796;52.388;13.096;2024-01-10T14:44:54;40.83;;;14.63;;